Tolono, Illinois
Current Conditions -  °F | °C
As of 3:53 AM on Tuesday 21 Oct 2014 (Local Time) from KCMI Reporting Station
Haze Haze  
Wind Chill: 39°   Ceiling: 5000
Heat Index: 43°   Visibility: 5mi
Dew Point: 42°   Wind: 6mph
Humidity: 97%   Direction: 310°NW
Pressure: 30.03"   Gusts: NA
Location:  39.99°N, 88.26°W
Report Text: KCMI 210853Z AUTO 31005KT 5SM BR OVC050 06/06 A3003 RMK AO2 SLP168 T00610056 51008 $
Loading
Personal Weather Stations






























Interactive Weather Map
Tropical Storm Tracking
New forecast layout! Learn more

10-Day Weather Forecast

Advertisements
Track Severe Weather on mobile